sensor_id;sensor_type;location;lat;lon;timestamp;noise_LAeq;noise_LA_min;noise_LA_max;noise_LA01;noise_LA95
67318;Laerm;57664;51.436;5.980;2023-04-10T00:00:03;35.20;34.21;36.27;;
67318;Laerm;57664;51.436;5.980;2023-04-10T00:00:13;35.23;34.31;36.44;;
67318;Laerm;57664;51.436;5.980;2023-04-10T00:00:44;35.17;34.07;36.18;;
67318;Laerm;57664;51.436;5.980;2023-04-10T00:00:55;35.18;34.30;36.11;;
67318;Laerm;57664;51.436;5.980;2023-04-10T00:01:06;35.16;34.23;36.03;;
67318;Laerm;57664;51.436;5.980;2023-04-10T00:01:17;35.13;34.41;35.91;;
67318;Laerm;57664;51.436;5.980;2023-04-10T00:01:27;35.18;34.16;36.35;;
67318;Laerm;57664;51.436;5.980;2023-04-10T00:01:41;35.15;34.23;36.14;;
67318;Laerm;57664;51.436;5.980;2023-04-10T00:02:21;35.14;34.24;36.03;;
67318;Laerm;57664;51.436;5.980;2023-04-10T00:02:32;35.13;34.18;35.92;;
67318;Laerm;57664;51.436;5.980;2023-04-10T00:02:42;35.13;34.30;36.05;;
67318;Laerm;57664;51.436;5.980;2023-04-10T00:03:02;35.14;34.02;35.89;;
67318;Laerm;57664;51.436;5.980;2023-04-10T00:03:12;35.13;34.08;36.02;;
67318;Laerm;57664;51.436;5.980;2023-04-10T00:03:23;35.12;34.30;36.08;;
67318;Laerm;57664;51.436;5.980;2023-04-10T00:03:34;35.13;34.03;35.98;;
67318;Laerm;57664;51.436;5.980;2023-04-10T00:03:50;35.14;34.16;36.07;;
67318;Laerm;57664;51.436;5.980;2023-04-10T00:04:02;35.16;34.06;36.19;;
67318;Laerm;57664;51.436;5.980;2023-04-10T00:04:12;35.15;34.01;36.17;;
67318;Laerm;57664;51.436;5.980;2023-04-10T00:04:23;35.13;34.13;36.25;;
67318;Laerm;57664;51.436;5.980;2023-04-10T00:04:34;35.13;34.19;36.12;;
67318;Laerm;57664;51.436;5.980;2023-04-10T00:04:45;35.12;34.16;36.19;;
67318;Laerm;57664;51.436;5.980;2023-04-10T00:04:55;35.09;33.87;35.92;;
67318;Laerm;57664;51.436;5.980;2023-04-10T00:05:06;35.15;34.25;36.25;;
67318;Laerm;57664;51.436;5.980;2023-04-10T00:05:17;35.13;34.24;35.94;;
67318;Laerm;57664;51.436;5.980;2023-04-10T00:05:28;35.10;34.31;35.91;;
67318;Laerm;57664;51.436;5.980;2023-04-10T00:05:38;35.10;34.25;35.95;;
67318;Laerm;57664;51.436;5.980;2023-04-10T00:05:48;35.11;34.36;36.23;;
67318;Laerm;57664;51.436;5.980;2023-04-10T00:06:07;35.11;34.28;35.92;;
67318;Laerm;57664;51.436;5.980;2023-04-10T00:06:17;35.12;34.17;36.35;;
67318;Laerm;57664;51.436;5.980;2023-04-10T00:06:28;35.16;34.06;36.03;;
67318;Laerm;57664;51.436;5.980;2023-04-10T00:06:38;35.13;34.24;35.95;;
67318;Laerm;57664;51.436;5.980;2023-04-10T00:06:50;35.13;33.95;35.95;;
67318;Laerm;57664;51.436;5.980;2023-04-10T00:07:00;35.14;34.49;35.96;;
67318;Laerm;57664;51.436;5.980;2023-04-10T00:07:10;35.10;34.30;36.00;;
67318;Laerm;57664;51.436;5.980;2023-04-10T00:07:21;35.11;34.15;36.02;;
67318;Laerm;57664;51.436;5.980;2023-04-10T00:07:31;35.11;34.35;35.93;;
67318;Laerm;57664;51.436;5.980;2023-04-10T00:07:42;35.09;33.99;36.01;;
67318;Laerm;57664;51.436;5.980;2023-04-10T00:08:12;35.12;34.15;36.13;;
67318;Laerm;57664;51.436;5.980;2023-04-10T00:08:23;35.13;34.14;36.12;;
67318;Laerm;57664;51.436;5.980;2023-04-10T00:08:33;35.13;34.18;36.00;;
67318;Laerm;57664;51.436;5.980;2023-04-10T00:08:43;35.10;34.26;35.93;;
67318;Laerm;57664;51.436;5.980;2023-04-10T00:08:54;35.11;34.15;35.99;;
67318;Laerm;57664;51.436;5.980;2023-04-10T00:09:04;35.12;34.05;35.85;;
67318;Laerm;57664;51.436;5.980;2023-04-10T00:09:14;35.12;34.02;36.01;;
67318;Laerm;57664;51.436;5.980;2023-04-10T00:09:25;35.21;34.40;35.95;;
67318;Laerm;57664;51.436;5.980;2023-04-10T00:09:35;35.16;34.35;35.93;;
67318;Laerm;57664;51.436;5.980;2023-04-10T00:09:48;35.13;34.19;36.16;;
67318;Laerm;57664;51.436;5.980;2023-04-10T00:09:58;35.17;34.26;36.19;;
67318;Laerm;57664;51.436;5.980;2023-04-10T00:10:10;35.15;34.15;36.04;;
67318;Laerm;57664;51.436;5.980;2023-04-10T00:10:20;35.15;34.14;35.91;;
67318;Laerm;57664;51.436;5.980;2023-04-10T00:10:31;35.16;34.17;36.05;;
67318;Laerm;57664;51.436;5.980;2023-04-10T00:10:42;35.14;34.28;35.94;;
67318;Laerm;57664;51.436;5.980;2023-04-10T00:10:56;35.12;33.98;35.91;;
67318;Laerm;57664;51.436;5.980;2023-04-10T00:11:06;35.14;34.14;35.94;;
67318;Laerm;57664;51.436;5.980;2023-04-10T00:11:17;35.09;34.26;35.84;;
67318;Laerm;57664;51.436;5.980;2023-04-10T00:11:27;35.16;34.39;36.04;;
67318;Laerm;57664;51.436;5.980;2023-04-10T00:11:38;35.13;33.88;36.16;;
67318;Laerm;57664;51.436;5.980;2023-04-10T00:11:48;35.15;34.28;36.00;;
67318;Laerm;57664;51.436;5.980;2023-04-10T00:11:58;35.12;34.22;36.22;;
67318;Laerm;57664;51.436;5.980;2023-04-10T00:12:09;35.13;34.09;36.00;;
67318;Laerm;57664;51.436;5.980;2023-04-10T00:12:24;35.12;33.76;35.92;;
67318;Laerm;57664;51.436;5.980;2023-04-10T00:12:35;35.11;34.24;36.05;;
67318;Laerm;57664;51.436;5.980;2023-04-10T00:12:50;35.15;34.15;35.93;;
67318;Laerm;57664;51.436;5.980;2023-04-10T00:13:02;35.11;34.21;35.94;;
67318;Laerm;57664;51.436;5.980;2023-04-10T00:13:14;35.12;34.31;36.01;;
67318;Laerm;57664;51.436;5.980;2023-04-10T00:13:25;35.14;34.30;35.87;;
67318;Laerm;57664;51.436;5.980;2023-04-10T00:13:44;35.10;34.25;36.03;;
67318;Laerm;57664;51.436;5.980;2023-04-10T00:13:55;35.09;34.08;36.20;;
67318;Laerm;57664;51.436;5.980;2023-04-10T00:14:05;35.08;34.05;35.94;;
67318;Laerm;57664;51.436;5.980;2023-04-10T00:14:15;35.15;34.22;36.22;;
67318;Laerm;57664;51.436;5.980;2023-04-10T00:14:32;35.14;34.06;36.26;;
67318;Laerm;57664;51.436;5.980;2023-04-10T00:14:42;35.12;34.00;36.06;;
67318;Laerm;57664;51.436;5.980;2023-04-10T00:14:52;35.18;34.23;36.43;;
67318;Laerm;57664;51.436;5.980;2023-04-10T00:15:08;35.17;34.04;35.95;;
67318;Laerm;57664;51.436;5.980;2023-04-10T00:15:21;35.12;34.16;36.13;;
67318;Laerm;57664;51.436;5.980;2023-04-10T00:15:32;35.13;34.10;36.08;;
67318;Laerm;57664;51.436;5.980;2023-04-10T00:15:42;35.13;34.34;36.01;;
67318;Laerm;57664;51.436;5.980;2023-04-10T00:15:54;35.08;34.00;36.04;;
67318;Laerm;57664;51.436;5.980;2023-04-10T00:16:05;35.10;34.12;35.87;;
67318;Laerm;57664;51.436;5.980;2023-04-10T00:16:15;35.11;34.11;36.14;;
67318;Laerm;57664;51.436;5.980;2023-04-10T00:16:25;35.14;33.95;36.12;;
67318;Laerm;57664;51.436;5.980;2023-04-10T00:16:36;35.17;34.00;35.93;;
67318;Laerm;57664;51.436;5.980;2023-04-10T00:16:46;35.17;34.01;36.21;;
67318;Laerm;57664;51.436;5.980;2023-04-10T00:16:56;35.20;34.30;36.07;;
67318;Laerm;57664;51.436;5.980;2023-04-10T00:17:07;35.20;34.34;36.07;;
67318;Laerm;57664;51.436;5.980;2023-04-10T00:17:18;35.18;34.24;36.25;;
67318;Laerm;57664;51.436;5.980;2023-04-10T00:17:29;35.15;34.27;36.00;;
67318;Laerm;57664;51.436;5.980;2023-04-10T00:17:39;35.18;34.25;36.01;;
67318;Laerm;57664;51.436;5.980;2023-04-10T00:17:49;35.23;34.24;36.01;;
67318;Laerm;57664;51.436;5.980;2023-04-10T00:18:03;35.21;34.30;36.04;;
67318;Laerm;57664;51.436;5.980;2023-04-10T00:18:14;35.20;34.17;36.27;;
67318;Laerm;57664;51.436;5.980;2023-04-10T00:18:24;35.18;34.29;36.10;;
67318;Laerm;57664;51.436;5.980;2023-04-10T00:18:38;35.20;34.05;36.21;;
67318;Laerm;57664;51.436;5.980;2023-04-10T00:18:48;35.22;34.42;36.21;;
67318;Laerm;57664;51.436;5.980;2023-04-10T00:18:58;35.22;34.19;36.31;;
67318;Laerm;57664;51.436;5.980;2023-04-10T00:19:08;35.21;34.30;35.96;;
67318;Laerm;57664;51.436;5.980;2023-04-10T00:19:20;35.20;34.36;36.01;;
67318;Laerm;57664;51.436;5.980;2023-04-10T00:19:30;35.24;34.36;36.04;;
67318;Laerm;57664;51.436;5.980;2023-04-10T00:19:41;35.21;34.30;36.09;;
67318;Laerm;57664;51.436;5.980;2023-04-10T00:19:51;35.24;34.40;36.25;;
67318;Laerm;57664;51.436;5.980;2023-04-10T00:20:01;35.21;34.32;35.97;;
67318;Laerm;57664;51.436;5.980;2023-04-10T00:20:13;35.25;34.04;36.08;;
67318;Laerm;57664;51.436;5.980;2023-04-10T00:20:23;35.24;34.30;36.02;;
67318;Laerm;57664;51.436;5.980;2023-04-10T00:20:42;35.24;34.05;36.17;;
67318;Laerm;57664;51.436;5.980;2023-04-10T00:20:53;35.20;34.23;36.10;;
67318;Laerm;57664;51.436;5.980;2023-04-10T00:21:03;35.25;34.31;36.28;;
67318;Laerm;57664;51.436;5.980;2023-04-10T00:21:13;35.24;33.99;36.07;;
67318;Laerm;57664;51.436;5.980;2023-04-10T00:21:24;35.28;34.30;36.45;;
67318;Laerm;57664;51.436;5.980;2023-04-10T00:21:35;35.25;34.31;36.10;;
67318;Laerm;57664;51.436;5.980;2023-04-10T00:21:45;35.21;34.33;36.01;;
67318;Laerm;57664;51.436;5.980;2023-04-10T00:21:56;35.25;34.18;36.18;;
67318;Laerm;57664;51.436;5.980;2023-04-10T00:22:06;35.25;34.33;36.01;;
67318;Laerm;57664;51.436;5.980;2023-04-10T00:22:16;35.25;34.41;36.37;;
67318;Laerm;57664;51.436;5.980;2023-04-10T00:22:43;35.23;34.24;36.14;;
67318;Laerm;57664;51.436;5.980;2023-04-10T00:22:53;35.26;34.23;36.28;;
67318;Laerm;57664;51.436;5.980;2023-04-10T00:23:04;35.28;34.40;36.17;;
67318;Laerm;57664;51.436;5.980;2023-04-10T00:23:15;35.25;34.40;36.49;;
67318;Laerm;57664;51.436;5.980;2023-04-10T00:23:25;35.23;34.16;36.40;;
67318;Laerm;57664;51.436;5.980;2023-04-10T00:23:36;35.28;34.38;36.19;;
67318;Laerm;57664;51.436;5.980;2023-04-10T00:23:46;35.28;34.41;36.22;;
67318;Laerm;57664;51.436;5.980;2023-04-10T00:23:56;35.27;34.29;36.17;;
67318;Laerm;57664;51.436;5.980;2023-04-10T00:24:07;35.26;34.39;36.14;;
67318;Laerm;57664;51.436;5.980;2023-04-10T00:24:17;35.28;34.48;36.77;;
67318;Laerm;57664;51.436;5.980;2023-04-10T00:24:27;35.29;34.43;36.32;;
67318;Laerm;57664;51.436;5.980;2023-04-10T00:24:38;35.30;34.39;36.34;;
67318;Laerm;57664;51.436;5.980;2023-04-10T00:24:48;35.30;34.17;36.10;;
67318;Laerm;57664;51.436;5.980;2023-04-10T00:24:58;35.29;34.29;36.14;;
67318;Laerm;57664;51.436;5.980;2023-04-10T00:25:12;35.32;34.21;36.25;;
67318;Laerm;57664;51.436;5.980;2023-04-10T00:25:22;35.35;34.48;36.12;;
67318;Laerm;57664;51.436;5.980;2023-04-10T00:25:32;35.33;34.29;36.19;;
67318;Laerm;57664;51.436;5.980;2023-04-10T00:25:42;35.36;34.26;36.21;;
67318;Laerm;57664;51.436;5.980;2023-04-10T00:25:53;35.35;34.36;36.15;;
67318;Laerm;57664;51.436;5.980;2023-04-10T00:26:03;35.39;34.34;36.40;;
67318;Laerm;57664;51.436;5.980;2023-04-10T00:26:13;35.35;34.25;36.81;;
67318;Laerm;57664;51.436;5.980;2023-04-10T00:26:23;35.33;34.45;36.33;;
67318;Laerm;57664;51.436;5.980;2023-04-10T00:26:35;35.35;34.48;36.25;;
67318;Laerm;57664;51.436;5.980;2023-04-10T00:26:47;35.38;34.40;36.14;;
67318;Laerm;57664;51.436;5.980;2023-04-10T00:26:57;35.36;34.53;36.55;;
67318;Laerm;57664;51.436;5.980;2023-04-10T00:27:08;35.42;34.23;36.48;;
67318;Laerm;57664;51.436;5.980;2023-04-10T00:27:18;35.37;34.24;36.23;;
67318;Laerm;57664;51.436;5.980;2023-04-10T00:27:30;35.40;34.42;36.14;;
67318;Laerm;57664;51.436;5.980;2023-04-10T00:27:40;35.39;34.49;36.50;;
67318;Laerm;57664;51.436;5.980;2023-04-10T00:27:51;35.38;34.65;36.26;;
67318;Laerm;57664;51.436;5.980;2023-04-10T00:28:02;35.39;34.33;36.28;;
67318;Laerm;57664;51.436;5.980;2023-04-10T00:28:12;35.39;34.30;36.26;;
67318;Laerm;57664;51.436;5.980;2023-04-10T00:28:23;35.36;34.19;36.01;;
67318;Laerm;57664;51.436;5.980;2023-04-10T00:28:33;35.42;34.60;36.34;;
67318;Laerm;57664;51.436;5.980;2023-04-10T00:28:47;35.42;34.50;36.66;;
67318;Laerm;57664;51.436;5.980;2023-04-10T00:28:57;35.36;34.47;36.09;;
67318;Laerm;57664;51.436;5.980;2023-04-10T00:29:07;35.38;34.36;36.21;;
67318;Laerm;57664;51.436;5.980;2023-04-10T00:29:18;35.40;34.28;36.57;;
67318;Laerm;57664;51.436;5.980;2023-04-10T00:29:28;35.42;34.37;36.31;;
67318;Laerm;57664;51.436;5.980;2023-04-10T00:29:38;35.40;34.56;36.20;;
67318;Laerm;57664;51.436;5.980;2023-04-10T00:29:48;35.41;34.31;36.46;;
67318;Laerm;57664;51.436;5.980;2023-04-10T00:29:59;35.41;34.62;36.29;;
67318;Laerm;57664;51.436;5.980;2023-04-10T00:30:11;35.42;34.64;36.31;;
67318;Laerm;57664;51.436;5.980;2023-04-10T00:30:21;35.42;34.39;36.32;;
67318;Laerm;57664;51.436;5.980;2023-04-10T00:30:32;35.41;34.19;36.25;;
67318;Laerm;57664;51.436;5.980;2023-04-10T00:30:42;35.43;34.52;36.26;;
67318;Laerm;57664;51.436;5.980;2023-04-10T00:30:52;35.48;34.40;36.51;;
67318;Laerm;57664;51.436;5.980;2023-04-10T00:31:03;35.46;34.44;36.33;;
67318;Laerm;57664;51.436;5.980;2023-04-10T00:31:13;35.46;34.48;36.73;;
67318;Laerm;57664;51.436;5.980;2023-04-10T00:31:24;35.46;34.60;36.51;;
67318;Laerm;57664;51.436;5.980;2023-04-10T00:31:34;35.46;34.38;36.47;;
67318;Laerm;57664;51.436;5.980;2023-04-10T00:31:45;35.46;34.60;36.27;;
67318;Laerm;57664;51.436;5.980;2023-04-10T00:31:55;35.46;34.54;36.30;;
67318;Laerm;57664;51.436;5.980;2023-04-10T00:32:05;35.48;34.40;36.53;;
67318;Laerm;57664;51.436;5.980;2023-04-10T00:32:24;35.46;34.54;36.46;;
67318;Laerm;57664;51.436;5.980;2023-04-10T00:32:34;35.47;34.47;36.33;;
67318;Laerm;57664;51.436;5.980;2023-04-10T00:32:44;35.50;34.38;36.28;;
67318;Laerm;57664;51.436;5.980;2023-04-10T00:32:55;35.48;34.50;36.29;;
67318;Laerm;57664;51.436;5.980;2023-04-10T00:33:05;35.49;34.71;36.60;;
67318;Laerm;57664;51.436;5.980;2023-04-10T00:33:15;35.52;34.76;36.56;;
67318;Laerm;57664;51.436;5.980;2023-04-10T00:33:26;35.52;34.54;36.46;;
67318;Laerm;57664;51.436;5.980;2023-04-10T00:33:36;35.55;34.67;36.65;;
67318;Laerm;57664;51.436;5.980;2023-04-10T00:33:46;35.54;34.82;36.39;;
67318;Laerm;57664;51.436;5.980;2023-04-10T00:33:56;35.51;34.51;36.71;;
67318;Laerm;57664;51.436;5.980;2023-04-10T00:34:07;35.58;34.66;36.26;;
67318;Laerm;57664;51.436;5.980;2023-04-10T00:34:18;35.52;34.48;36.35;;
67318;Laerm;57664;51.436;5.980;2023-04-10T00:34:28;35.56;34.41;36.46;;
67318;Laerm;57664;51.436;5.980;2023-04-10T00:34:38;35.53;34.66;36.56;;
67318;Laerm;57664;51.436;5.980;2023-04-10T00:34:48;35.55;34.63;36.52;;
67318;Laerm;57664;51.436;5.980;2023-04-10T00:34:59;35.57;34.38;36.78;;
67318;Laerm;57664;51.436;5.980;2023-04-10T00:35:09;35.55;34.36;36.42;;
67318;Laerm;57664;51.436;5.980;2023-04-10T00:35:19;35.52;34.34;36.46;;
67318;Laerm;57664;51.436;5.980;2023-04-10T00:35:30;35.53;34.32;36.43;;
67318;Laerm;57664;51.436;5.980;2023-04-10T00:35:40;35.54;34.56;36.31;;
67318;Laerm;57664;51.436;5.980;2023-04-10T00:35:50;35.56;34.59;36.87;;
67318;Laerm;57664;51.436;5.980;2023-04-10T00:36:01;35.57;34.54;36.49;;
67318;Laerm;57664;51.436;5.980;2023-04-10T00:36:11;35.55;34.65;36.42;;
67318;Laerm;57664;51.436;5.980;2023-04-10T00:36:21;35.55;34.65;36.33;;
67318;Laerm;57664;51.436;5.980;2023-04-10T00:36:32;35.57;34.84;36.38;;
67318;Laerm;57664;51.436;5.980;2023-04-10T00:36:43;35.58;34.76;36.40;;
67318;Laerm;57664;51.436;5.980;2023-04-10T00:36:54;35.58;34.32;36.66;;
67318;Laerm;57664;51.436;5.980;2023-04-10T00:37:04;35.61;34.69;36.58;;
67318;Laerm;57664;51.436;5.980;2023-04-10T00:37:15;35.62;34.74;36.78;;
67318;Laerm;57664;51.436;5.980;2023-04-10T00:37:27;35.56;34.49;36.34;;
67318;Laerm;57664;51.436;5.980;2023-04-10T00:37:37;35.64;34.57;36.68;;
67318;Laerm;57664;51.436;5.980;2023-04-10T00:37:48;35.64;34.70;36.87;;
67318;Laerm;57664;51.436;5.980;2023-04-10T00:37:59;35.66;34.90;36.80;;
67318;Laerm;57664;51.436;5.980;2023-04-10T00:38:09;35.64;34.56;36.96;;
67318;Laerm;57664;51.436;5.980;2023-04-10T00:38:20;35.60;34.61;36.48;;
67318;Laerm;57664;51.436;5.980;2023-04-10T00:38:30;35.63;34.83;36.49;;
67318;Laerm;57664;51.436;5.980;2023-04-10T00:38:40;35.56;34.46;36.50;;
67318;Laerm;57664;51.436;5.980;2023-04-10T00:38:51;35.61;34.59;36.50;;
67318;Laerm;57664;51.436;5.980;2023-04-10T00:39:01;35.61;34.71;36.46;;
67318;Laerm;57664;51.436;5.980;2023-04-10T00:39:12;35.60;34.70;36.59;;
67318;Laerm;57664;51.436;5.980;2023-04-10T00:39:23;35.58;34.80;36.70;;
67318;Laerm;57664;51.436;5.980;2023-04-10T00:39:33;35.61;34.72;36.53;;
67318;Laerm;57664;51.436;5.980;2023-04-10T00:39:44;35.57;34.65;36.56;;
67318;Laerm;57664;51.436;5.980;2023-04-10T00:39:55;35.61;34.76;36.69;;
67318;Laerm;57664;51.436;5.980;2023-04-10T00:40:06;35.62;34.54;36.69;;
67318;Laerm;57664;51.436;5.980;2023-04-10T00:40:16;35.59;34.71;36.36;;
67318;Laerm;57664;51.436;5.980;2023-04-10T00:40:26;35.57;34.56;36.47;;
67318;Laerm;57664;51.436;5.980;2023-04-10T00:40:39;35.60;34.75;36.40;;
67318;Laerm;57664;51.436;5.980;2023-04-10T00:40:49;35.63;34.49;36.44;;
67318;Laerm;57664;51.436;5.980;2023-04-10T00:41:00;35.61;34.76;36.45;;
67318;Laerm;57664;51.436;5.980;2023-04-10T00:41:10;35.64;34.62;36.50;;
67318;Laerm;57664;51.436;5.980;2023-04-10T00:41:20;35.60;34.82;36.46;;
67318;Laerm;57664;51.436;5.980;2023-04-10T00:41:32;35.59;34.67;36.58;;
67318;Laerm;57664;51.436;5.980;2023-04-10T00:41:43;35.63;34.52;36.60;;
67318;Laerm;57664;51.436;5.980;2023-04-10T00:41:54;35.60;34.39;36.49;;
67318;Laerm;57664;51.436;5.980;2023-04-10T00:42:04;35.60;34.74;36.46;;
67318;Laerm;57664;51.436;5.980;2023-04-10T00:42:18;35.60;34.54;36.53;;
67318;Laerm;57664;51.436;5.980;2023-04-10T00:42:28;35.61;34.71;36.67;;
67318;Laerm;57664;51.436;5.980;2023-04-10T00:42:38;35.54;34.67;36.44;;
67318;Laerm;57664;51.436;5.980;2023-04-10T00:42:49;35.59;34.44;36.60;;
67318;Laerm;57664;51.436;5.980;2023-04-10T00:43:00;35.61;34.69;36.65;;
67318;Laerm;57664;51.436;5.980;2023-04-10T00:43:10;35.59;34.51;36.32;;
67318;Laerm;57664;51.436;5.980;2023-04-10T00:43:20;35.56;34.71;36.47;;
67318;Laerm;57664;51.436;5.980;2023-04-10T00:43:30;35.63;34.61;36.65;;
67318;Laerm;57664;51.436;5.980;2023-04-10T00:43:41;35.56;34.38;36.44;;
67318;Laerm;57664;51.436;5.980;2023-04-10T00:43:55;35.56;34.65;36.33;;
67318;Laerm;57664;51.436;5.980;2023-04-10T00:44:05;35.58;34.61;36.32;;
67318;Laerm;57664;51.436;5.980;2023-04-10T00:44:16;35.57;34.81;36.39;;
67318;Laerm;57664;51.436;5.980;2023-04-10T00:44:26;35.58;34.69;36.39;;
67318;Laerm;57664;51.436;5.980;2023-04-10T00:44:37;35.56;34.68;36.62;;
67318;Laerm;57664;51.436;5.980;2023-04-10T00:44:47;35.60;34.73;36.80;;
67318;Laerm;57664;51.436;5.980;2023-04-10T00:44:58;35.54;34.61;36.76;;
67318;Laerm;57664;51.436;5.980;2023-04-10T00:45:08;35.53;34.62;36.57;;
67318;Laerm;57664;51.436;5.980;2023-04-10T00:45:19;35.59;34.70;37.31;;
67318;Laerm;57664;51.436;5.980;2023-04-10T00:45:29;35.54;34.68;36.48;;
67318;Laerm;57664;51.436;5.980;2023-04-10T00:45:40;35.56;34.48;36.47;;
67318;Laerm;57664;51.436;5.980;2023-04-10T00:45:50;35.55;34.39;36.64;;
67318;Laerm;57664;51.436;5.980;2023-04-10T00:46:01;35.56;34.72;36.45;;
67318;Laerm;57664;51.436;5.980;2023-04-10T00:46:11;35.56;34.78;36.59;;
67318;Laerm;57664;51.436;5.980;2023-04-10T00:46:22;35.56;34.73;36.46;;
67318;Laerm;57664;51.436;5.980;2023-04-10T00:46:33;35.54;34.57;36.45;;
67318;Laerm;57664;51.436;5.980;2023-04-10T00:46:44;35.53;34.42;36.60;;
67318;Laerm;57664;51.436;5.980;2023-04-10T00:46:54;35.55;34.68;36.27;;
67318;Laerm;57664;51.436;5.980;2023-04-10T00:47:05;35.53;34.52;36.33;;
67318;Laerm;57664;51.436;5.980;2023-04-10T00:47:16;35.53;34.50;36.47;;
67318;Laerm;57664;51.436;5.980;2023-04-10T00:47:26;35.51;34.63;36.39;;
67318;Laerm;57664;51.436;5.980;2023-04-10T00:47:37;35.51;34.65;36.43;;
67318;Laerm;57664;51.436;5.980;2023-04-10T00:47:47;35.51;34.61;36.41;;
67318;Laerm;57664;51.436;5.980;2023-04-10T00:47:58;35.49;34.57;36.40;;
67318;Laerm;57664;51.436;5.980;2023-04-10T00:48:08;35.47;34.45;36.37;;
67318;Laerm;57664;51.436;5.980;2023-04-10T00:48:19;35.52;34.75;36.31;;
67318;Laerm;57664;51.436;5.980;2023-04-10T00:48:29;35.55;34.44;36.64;;
67318;Laerm;57664;51.436;5.980;2023-04-10T00:48:40;35.54;34.46;36.49;;
67318;Laerm;57664;51.436;5.980;2023-04-10T00:48:53;35.53;34.69;36.60;;
67318;Laerm;57664;51.436;5.980;2023-04-10T00:49:05;35.51;34.50;36.23;;
67318;Laerm;57664;51.436;5.980;2023-04-10T00:49:15;35.55;34.64;36.78;;
67318;Laerm;57664;51.436;5.980;2023-04-10T00:49:27;35.53;34.68;36.41;;
67318;Laerm;57664;51.436;5.980;2023-04-10T00:49:37;35.52;34.61;36.50;;
67318;Laerm;57664;51.436;5.980;2023-04-10T00:49:48;35.53;34.61;36.33;;
67318;Laerm;57664;51.436;5.980;2023-04-10T00:49:58;35.52;34.56;36.35;;
67318;Laerm;57664;51.436;5.980;2023-04-10T00:50:09;35.54;34.55;36.53;;
67318;Laerm;57664;51.436;5.980;2023-04-10T00:50:20;35.51;34.66;36.63;;
67318;Laerm;57664;51.436;5.980;2023-04-10T00:50:30;35.48;34.61;36.66;;
67318;Laerm;57664;51.436;5.980;2023-04-10T00:50:41;35.53;34.48;36.50;;
67318;Laerm;57664;51.436;5.980;2023-04-10T00:50:51;35.54;34.56;36.26;;
67318;Laerm;57664;51.436;5.980;2023-04-10T00:51:01;35.49;34.70;36.55;;
67318;Laerm;57664;51.436;5.980;2023-04-10T00:51:12;35.52;34.78;36.25;;
67318;Laerm;57664;51.436;5.980;2023-04-10T00:51:22;35.49;34.66;36.54;;
67318;Laerm;57664;51.436;5.980;2023-04-10T00:51:32;35.44;34.50;36.44;;
67318;Laerm;57664;51.436;5.980;2023-04-10T00:51:45;35.53;34.55;36.53;;
67318;Laerm;57664;51.436;5.980;2023-04-10T00:51:56;35.48;34.60;36.31;;
67318;Laerm;57664;51.436;5.980;2023-04-10T00:52:07;35.48;34.51;37.31;;
67318;Laerm;57664;51.436;5.980;2023-04-10T00:52:18;35.47;34.47;36.60;;
67318;Laerm;57664;51.436;5.980;2023-04-10T00:52:28;35.47;34.64;36.14;;
67318;Laerm;57664;51.436;5.980;2023-04-10T00:52:39;35.46;34.66;36.20;;
67318;Laerm;57664;51.436;5.980;2023-04-10T00:52:50;35.50;34.58;36.50;;
67318;Laerm;57664;51.436;5.980;2023-04-10T00:53:00;35.50;34.22;36.33;;
67318;Laerm;57664;51.436;5.980;2023-04-10T00:53:12;35.50;34.43;36.45;;
67318;Laerm;57664;51.436;5.980;2023-04-10T00:53:22;35.48;34.51;36.38;;
67318;Laerm;57664;51.436;5.980;2023-04-10T00:53:32;35.47;34.64;36.57;;
67318;Laerm;57664;51.436;5.980;2023-04-10T00:53:42;35.50;34.72;36.34;;
67318;Laerm;57664;51.436;5.980;2023-04-10T00:53:56;35.52;34.64;36.27;;
67318;Laerm;57664;51.436;5.980;2023-04-10T00:54:09;35.51;34.51;36.43;;
67318;Laerm;57664;51.436;5.980;2023-04-10T00:54:20;35.55;34.74;36.70;;
67318;Laerm;57664;51.436;5.980;2023-04-10T00:54:30;35.54;34.66;36.31;;
67318;Laerm;57664;51.436;5.980;2023-04-10T00:54:41;35.53;34.78;36.66;;
67318;Laerm;57664;51.436;5.980;2023-04-10T00:54:51;35.54;34.60;36.54;;
67318;Laerm;57664;51.436;5.980;2023-04-10T00:55:07;35.52;34.49;36.57;;
67318;Laerm;57664;51.436;5.980;2023-04-10T00:55:18;35.50;34.43;36.54;;
67318;Laerm;57664;51.436;5.980;2023-04-10T00:55:29;35.52;34.76;36.47;;
67318;Laerm;57664;51.436;5.980;2023-04-10T00:55:39;35.49;34.50;36.37;;
67318;Laerm;57664;51.436;5.980;2023-04-10T00:55:50;35.45;34.61;36.26;;
67318;Laerm;57664;51.436;5.980;2023-04-10T00:56:00;35.47;34.64;36.37;;
67318;Laerm;57664;51.436;5.980;2023-04-10T00:56:11;35.46;34.52;36.35;;
67318;Laerm;57664;51.436;5.980;2023-04-10T00:56:22;35.45;34.65;36.35;;
67318;Laerm;57664;51.436;5.980;2023-04-10T00:56:36;35.47;34.60;36.29;;
67318;Laerm;57664;51.436;5.980;2023-04-10T00:56:46;35.46;34.72;36.47;;
67318;Laerm;57664;51.436;5.980;2023-04-10T00:56:57;35.44;34.40;36.32;;
67318;Laerm;57664;51.436;5.980;2023-04-10T00:57:07;35.49;34.49;36.32;;
67318;Laerm;57664;51.436;5.980;2023-04-10T00:57:18;35.49;34.43;36.48;;
67318;Laerm;57664;51.436;5.980;2023-04-10T00:57:28;35.46;34.63;36.47;;
67318;Laerm;57664;51.436;5.980;2023-04-10T00:57:38;35.49;34.70;36.20;;
67318;Laerm;57664;51.436;5.980;2023-04-10T00:57:50;35.53;34.63;36.40;;
67318;Laerm;57664;51.436;5.980;2023-04-10T00:58:01;35.51;34.60;36.40;;
67318;Laerm;57664;51.436;5.980;2023-04-10T00:58:11;35.48;34.40;36.33;;
67318;Laerm;57664;51.436;5.980;2023-04-10T00:58:23;35.47;34.58;36.28;;
67318;Laerm;57664;51.436;5.980;2023-04-10T00:58:35;35.48;34.39;36.35;;
67318;Laerm;57664;51.436;5.980;2023-04-10T00:58:45;35.46;34.23;36.59;;
67318;Laerm;57664;51.436;5.980;2023-04-10T00:58:56;35.46;34.44;36.25;;
67318;Laerm;57664;51.436;5.980;2023-04-10T00:59:06;35.45;34.19;36.23;;
67318;Laerm;57664;51.436;5.980;2023-04-10T00:59:17;35.44;34.36;36.36;;
67318;Laerm;57664;51.436;5.980;2023-04-10T00:59:27;35.49;34.64;36.21;;
67318;Laerm;57664;51.436;5.980;2023-04-10T00:59:38;35.50;34.67;36.27;;
67318;Laerm;57664;51.436;5.980;2023-04-10T00:59:48;35.54;34.34;36.41;;
67318;Laerm;57664;51.436;5.980;2023-04-10T01:00:01;35.48;34.42;36.33;;
67318;Laerm;57664;51.436;5.980;2023-04-10T01:00:13;35.47;34.37;36.37;;
67318;Laerm;57664;51.436;5.980;2023-04-10T01:00:23;35.50;34.62;36.22;;
67318;Laerm;57664;51.436;5.980;2023-04-10T01:00:34;35.50;34.66;36.35;;
67318;Laerm;57664;51.436;5.980;2023-04-10T01:00:45;35.50;34.56;36.53;;
67318;Laerm;57664;51.436;5.980;2023-04-10T01:00:57;35.50;34.66;36.59;;
67318;Laerm;57664;51.436;5.980;2023-04-10T01:01:07;35.47;34.72;36.35;;
67318;Laerm;57664;51.436;5.980;2023-04-10T01:01:17;35.49;34.29;36.42;;
67318;Laerm;57664;51.436;5.980;2023-04-10T01:01:28;35.50;34.52;36.99;;
67318;Laerm;57664;51.436;5.980;2023-04-10T01:01:38;35.49;34.73;37.04;;
67318;Laerm;57664;51.436;5.980;2023-04-10T01:01:48;35.50;34.49;36.49;;
67318;Laerm;57664;51.436;5.980;2023-04-10T01:01:59;35.50;34.47;36.47;;
67318;Laerm;57664;51.436;5.980;2023-04-10T01:02:09;35.50;34.55;36.33;;
67318;Laerm;57664;51.436;5.980;2023-04-10T01:02:22;35.53;34.59;36.45;;
67318;Laerm;57664;51.436;5.980;2023-04-10T01:02:32;35.53;34.40;36.36;;